createdAt,value
2023-03-22T00:00:27.984Z,6.60
2023-03-22T00:03:16.829Z,6.20
2023-03-22T00:05:45.646Z,5.50
2023-03-22T00:08:13.902Z,6.30
2023-03-22T00:10:42.528Z,5.70
2023-03-22T00:13:11.825Z,6.30
2023-03-22T00:15:40.021Z,5.60
2023-03-22T00:18:08.381Z,6.50
2023-03-22T00:20:38.562Z,5.80
2023-03-22T00:23:06.910Z,6.00
2023-03-22T00:25:34.939Z,6.30
2023-03-22T00:28:02.947Z,5.30
2023-03-22T00:30:31.098Z,5.20
2023-03-22T00:32:59.114Z,5.90
2023-03-22T00:35:27.182Z,5.90
2023-03-22T00:37:55.582Z,5.50
2023-03-22T00:40:23.894Z,5.60
2023-03-22T00:42:51.927Z,6.10
2023-03-22T00:45:20.041Z,5.80
2023-03-22T00:47:48.126Z,5.20
2023-03-22T00:50:16.268Z,5.20
2023-03-22T00:52:44.327Z,4.90
2023-03-22T00:55:12.491Z,5.00
2023-03-22T00:57:40.627Z,5.20
2023-03-22T01:00:16.243Z,5.20
2023-03-22T01:02:44.532Z,5.30
2023-03-22T01:05:16.109Z,5.10
2023-03-22T01:07:44.985Z,5.30
2023-03-22T01:10:13.097Z,5.10
2023-03-22T01:12:41.212Z,5.30
2023-03-22T01:15:09.870Z,5.40
2023-03-22T01:17:38.051Z,5.50
2023-03-22T01:20:07.314Z,5.30
2023-03-22T01:22:35.592Z,5.70
2023-03-22T01:25:04.165Z,5.60
2023-03-22T01:27:32.305Z,5.40
2023-03-22T01:30:00.607Z,6.10
2023-03-22T01:32:28.755Z,5.90
2023-03-22T01:34:56.796Z,6.00
2023-03-22T01:37:27.733Z,5.80
2023-03-22T01:39:55.994Z,5.50
2023-03-22T01:42:24.768Z,4.80
2023-03-22T01:45:39.120Z,5.50
2023-03-22T01:48:46.466Z,5.10
2023-03-22T01:51:20.633Z,5.90
2023-03-22T01:54:01.836Z,5.40
2023-03-22T01:56:32.596Z,6.20
2023-03-22T01:59:01.765Z,6.20
2023-03-22T02:01:31.103Z,4.60
2023-03-22T02:04:15.366Z,4.00
2023-03-22T02:06:44.668Z,3.60
2023-03-22T02:09:14.834Z,3.70
2023-03-22T02:11:49.155Z,3.60
2023-03-22T02:14:35.333Z,4.50
2023-03-22T02:17:21.800Z,5.70
2023-03-22T02:20:11.029Z,5.20
2023-03-22T02:22:58.236Z,4.60
2023-03-22T02:25:44.375Z,4.40
2023-03-22T02:28:39.819Z,4.40
2023-03-22T02:31:25.992Z,5.00
2023-03-22T02:34:06.291Z,4.70
2023-03-22T02:37:04.988Z,4.60
2023-03-22T02:39:58.810Z,4.10
2023-03-22T02:42:36.918Z,4.10
2023-03-22T02:45:18.499Z,4.50
2023-03-22T02:48:13.288Z,4.30
2023-03-22T02:50:46.689Z,4.90
2023-03-22T02:53:21.039Z,4.90
2023-03-22T02:55:56.269Z,4.50
2023-03-22T02:58:35.945Z,4.70
2023-03-22T03:01:09.437Z,4.50
2023-03-22T03:03:39.849Z,4.60
2023-03-22T03:06:16.809Z,4.90
2023-03-22T03:08:50.854Z,5.10
2023-03-22T03:11:19.689Z,4.90
2023-03-22T03:13:49.044Z,5.40
2023-03-22T03:16:21.582Z,5.60
2023-03-22T03:19:16.416Z,4.60
2023-03-22T03:22:34.761Z,5.10
2023-03-22T03:25:23.071Z,5.20
2023-03-22T03:28:14.887Z,4.60
2023-03-22T03:30:53.762Z,3.80
2023-03-22T03:33:26.213Z,3.80
2023-03-22T03:36:02.944Z,4.30
2023-03-22T03:38:34.655Z,4.00
2023-03-22T03:41:06.809Z,4.10
2023-03-22T03:43:36.051Z,3.70
2023-03-22T03:46:04.458Z,4.70
2023-03-22T03:48:35.254Z,4.10
2023-03-22T03:51:03.732Z,4.50
2023-03-22T03:53:31.957Z,5.10
2023-03-22T03:56:00.097Z,4.70
2023-03-22T03:58:30.571Z,4.30
2023-03-22T04:00:58.943Z,4.50
2023-03-22T04:03:27.064Z,3.70
2023-03-22T04:05:55.109Z,4.30
2023-03-22T04:08:23.202Z,3.80
2023-03-22T04:10:52.363Z,4.10
2023-03-22T04:13:21.792Z,3.70
2023-03-22T04:15:54.477Z,4.40
2023-03-22T04:18:22.653Z,4.50
2023-03-22T04:20:53.684Z,4.20
2023-03-22T04:23:23.291Z,4.00
2023-03-22T04:25:51.496Z,4.20
2023-03-22T04:28:20.442Z,4.30
2023-03-22T04:30:52.204Z,4.60
2023-03-22T04:33:23.199Z,4.50
2023-03-22T04:35:57.178Z,4.60
2023-03-22T04:38:25.459Z,5.50
2023-03-22T04:40:53.618Z,5.20
2023-03-22T04:43:21.740Z,5.10
2023-03-22T04:45:49.951Z,5.40
2023-03-22T04:48:21.654Z,5.70
2023-03-22T04:50:53.449Z,5.20
2023-03-22T04:53:27.669Z,5.70
2023-03-22T04:55:59.359Z,5.30
2023-03-22T04:58:27.531Z,5.80
2023-03-22T05:00:55.655Z,6.00
2023-03-22T05:03:23.990Z,5.50
2023-03-22T05:05:53.855Z,5.40
2023-03-22T05:08:25.026Z,5.20
2023-03-22T05:10:54.352Z,5.10
2023-03-22T05:13:24.637Z,4.40
2023-03-22T05:15:53.064Z,4.80
2023-03-22T05:18:26.522Z,4.80
2023-03-22T05:20:57.643Z,4.90
2023-03-22T05:23:25.766Z,5.10
2023-03-22T05:25:54.417Z,5.50
2023-03-22T05:28:22.641Z,5.20
2023-03-22T05:30:52.112Z,4.80
2023-03-22T05:33:23.442Z,5.20
2023-03-22T05:35:52.070Z,6.40
2023-03-22T05:38:22.963Z,6.10
2023-03-22T05:43:19.961Z,5.60
2023-03-22T05:45:48.192Z,6.70
2023-03-22T05:48:16.366Z,4.40
2023-03-22T05:50:44.535Z,4.40
2023-03-22T05:53:12.631Z,4.50
2023-03-22T05:55:40.815Z,4.60
2023-03-22T05:58:09.261Z,3.90
2023-03-22T06:00:37.461Z,4.20
2023-03-22T06:03:05.710Z,4.30
2023-03-22T06:05:36.565Z,4.30
2023-03-22T06:10:33.107Z,4.10
2023-03-22T06:13:01.186Z,4.40
2023-03-22T06:15:29.352Z,4.80
2023-03-22T06:17:57.402Z,5.10
2023-03-22T06:20:25.888Z,4.80
2023-03-22T06:22:54.061Z,5.10
2023-03-22T06:25:22.161Z,5.50
2023-03-22T06:27:50.493Z,5.80
2023-03-22T06:30:20.032Z,5.70
2023-03-22T06:32:48.133Z,5.90
2023-03-22T06:35:16.371Z,6.40
2023-03-22T06:37:44.433Z,6.20
2023-03-22T06:40:12.750Z,6.20
2023-03-22T06:42:41.458Z,6.50
2023-03-22T06:45:10.053Z,6.50
2023-03-22T06:47:38.172Z,6.70
2023-03-22T06:50:06.772Z,7.00
2023-03-22T06:52:34.769Z,6.40
2023-03-22T06:55:03.097Z,7.40
2023-03-22T06:57:31.288Z,7.70
2023-03-22T06:59:59.330Z,7.60
2023-03-22T07:02:27.502Z,6.90
2023-03-22T07:04:55.582Z,7.00
2023-03-22T07:07:23.621Z,7.60
2023-03-22T07:09:52.976Z,7.10
2023-03-22T07:12:21.101Z,6.60
2023-03-22T07:14:49.414Z,5.40
2023-03-22T07:17:17.551Z,5.80
2023-03-22T07:19:45.606Z,7.00
2023-03-22T07:22:13.710Z,5.70
2023-03-22T07:24:53.828Z,4.90
2023-03-22T07:27:24.155Z,6.60
2023-03-22T07:29:52.659Z,5.60
2023-03-22T07:32:20.806Z,6.00
2023-03-22T07:34:49.055Z,5.80
2023-03-22T07:37:17.206Z,5.80
2023-03-22T07:39:45.466Z,4.80
2023-03-22T07:42:13.724Z,4.10
2023-03-22T07:44:42.476Z,4.70
2023-03-22T07:47:10.648Z,4.80
2023-03-22T07:49:38.944Z,4.00
2023-03-22T07:52:07.231Z,5.00
2023-03-22T07:54:35.678Z,4.00
2023-03-22T07:57:04.007Z,3.70
2023-03-22T07:59:32.161Z,3.80
2023-03-22T08:02:00.306Z,4.10
2023-03-22T08:04:28.435Z,4.00
2023-03-22T08:06:58.828Z,3.90
2023-03-22T08:09:27.136Z,3.90
2023-03-22T08:11:55.198Z,5.00
2023-03-22T08:14:35.512Z,4.40
2023-03-22T08:17:06.204Z,4.20
2023-03-22T08:19:34.986Z,5.20
2023-03-22T08:22:03.805Z,5.30
2023-03-22T08:24:32.069Z,4.60
2023-03-22T08:27:00.350Z,5.50
2023-03-22T08:29:28.557Z,4.90
2023-03-22T08:32:02.165Z,5.60
2023-03-22T08:34:31.574Z,6.10
2023-03-22T08:36:59.645Z,6.20
2023-03-22T08:39:28.142Z,5.50
2023-03-22T08:41:56.451Z,6.00
2023-03-22T08:44:25.149Z,6.80
2023-03-22T08:46:53.749Z,5.70
2023-03-22T08:49:22.617Z,6.70
2023-03-22T08:51:50.954Z,5.70
2023-03-22T08:54:19.234Z,4.90
2023-03-22T08:56:48.438Z,4.90
2023-03-22T08:59:16.817Z,5.00
2023-03-22T09:01:45.114Z,5.10
2023-03-22T09:04:13.436Z,5.00
2023-03-22T09:06:44.348Z,4.30
2023-03-22T09:09:12.854Z,4.90
2023-03-22T09:11:42.895Z,4.70
2023-03-22T09:14:11.095Z,5.50
2023-03-22T09:16:39.389Z,5.30
2023-03-22T09:19:07.556Z,5.10
2023-03-22T09:21:35.979Z,5.30
2023-03-22T09:24:04.236Z,4.90
2023-03-22T09:26:32.731Z,5.00
2023-03-22T09:29:00.888Z,5.10
2023-03-22T09:31:29.026Z,4.50
2023-03-22T09:33:57.117Z,4.40
2023-03-22T09:36:25.460Z,4.00
2023-03-22T09:38:53.542Z,4.20
2023-03-22T09:41:33.489Z,4.10
2023-03-22T09:44:05.670Z,3.60
2023-03-22T09:46:41.259Z,3.60
2023-03-22T09:49:19.469Z,3.40
2023-03-22T09:51:50.670Z,3.40
2023-03-22T09:54:21.950Z,3.50
2023-03-22T09:56:59.729Z,3.40
2023-03-22T09:59:52.303Z,3.30
2023-03-22T10:02:37.068Z,3.90
2023-03-22T10:05:26.716Z,3.60
2023-03-22T10:08:19.978Z,3.20
2023-03-22T10:10:48.577Z,3.10
2023-03-22T10:13:39.836Z,3.40
2023-03-22T10:16:13.553Z,3.40
2023-03-22T10:18:47.360Z,2.90
2023-03-22T10:21:17.915Z,3.10
2023-03-22T10:26:26.521Z,2.60
2023-03-22T10:29:09.856Z,2.80
2023-03-22T10:31:42.386Z,3.20
2023-03-22T10:34:19.021Z,2.50
2023-03-22T10:36:48.612Z,3.00
2023-03-22T10:39:19.785Z,3.30
2023-03-22T10:41:49.275Z,3.10
2023-03-22T10:44:20.012Z,2.90
2023-03-22T10:46:51.328Z,3.20
2023-03-22T10:49:27.591Z,2.70
2023-03-22T10:52:04.060Z,2.90
2023-03-22T10:54:32.836Z,3.00
2023-03-22T10:57:00.942Z,3.10
2023-03-22T10:59:51.305Z,2.90
2023-03-22T11:02:28.793Z,2.90
2023-03-22T11:04:59.827Z,3.20
2023-03-22T11:07:46.294Z,3.00
2023-03-22T11:10:24.680Z,3.10
2023-03-22T11:12:56.511Z,3.20
2023-03-22T11:15:29.027Z,3.60
2023-03-22T11:18:07.344Z,3.00
2023-03-22T11:20:35.908Z,2.70
2023-03-22T11:23:06.071Z,2.90
2023-03-22T11:26:05.893Z,2.90
2023-03-22T11:28:49.508Z,2.70
2023-03-22T11:31:20.016Z,2.90
2023-03-22T11:33:59.922Z,3.50
2023-03-22T11:36:29.689Z,2.70
2023-03-22T11:39:00.236Z,3.00
2023-03-22T11:41:35.026Z,3.10
2023-03-22T11:44:06.854Z,2.60
2023-03-22T11:46:36.549Z,3.00
2023-03-22T11:49:12.553Z,2.70
2023-03-22T11:51:41.249Z,2.90
2023-03-22T11:54:16.882Z,2.50
2023-03-22T11:56:48.009Z,2.70
2023-03-22T11:59:28.824Z,2.40
2023-03-22T12:01:59.828Z,2.80
2023-03-22T12:04:31.971Z,2.80
2023-03-22T12:07:03.576Z,2.40
2023-03-22T12:09:50.667Z,2.60
2023-03-22T12:12:27.511Z,2.40
2023-03-22T12:15:24.575Z,2.00
2023-03-22T12:18:16.666Z,2.50
2023-03-22T12:20:59.054Z,2.40
2023-03-22T12:23:37.807Z,2.20
2023-03-22T12:26:12.049Z,2.10
2023-03-22T12:29:05.863Z,2.30
2023-03-22T12:31:42.706Z,2.40
2023-03-22T12:34:18.688Z,2.10
2023-03-22T12:36:51.235Z,2.20
2023-03-22T12:39:50.858Z,2.20
2023-03-22T12:42:25.444Z,2.30
2023-03-22T12:45:05.068Z,2.20
2023-03-22T12:47:42.067Z,2.20
2023-03-22T12:50:13.421Z,2.30
2023-03-22T12:52:47.102Z,2.40
2023-03-22T12:55:40.238Z,2.20
2023-03-22T12:58:10.415Z,2.40
2023-03-22T13:01:06.615Z,2.40
2023-03-22T13:03:44.613Z,2.40
2023-03-22T13:06:34.126Z,2.50
2023-03-22T13:09:19.890Z,2.60
2023-03-22T13:12:09.288Z,2.00
2023-03-22T13:14:52.089Z,2.40
2023-03-22T13:17:23.115Z,2.40
2023-03-22T13:20:01.486Z,2.50
2023-03-22T13:22:50.009Z,2.50
2023-03-22T13:25:19.269Z,2.50
2023-03-22T13:28:20.229Z,2.50
2023-03-22T13:30:50.661Z,2.30
2023-03-22T13:33:26.718Z,2.20
2023-03-22T13:35:57.579Z,2.60
2023-03-22T13:38:28.818Z,2.40
2023-03-22T13:41:22.552Z,2.80
2023-03-22T13:43:54.329Z,2.90
2023-03-22T13:46:22.664Z,2.40
2023-03-22T13:49:17.714Z,2.70
2023-03-22T13:51:46.454Z,2.80
2023-03-22T13:54:16.671Z,3.30
2023-03-22T13:56:44.899Z,3.10
2023-03-22T13:59:19.020Z,2.80
2023-03-22T14:01:51.863Z,3.00
2023-03-22T14:04:29.020Z,2.70
2023-03-22T14:07:08.995Z,3.00
2023-03-22T14:09:45.525Z,3.10
2023-03-22T14:12:25.074Z,2.90
2023-03-22T14:14:57.516Z,2.60
2023-03-22T14:17:41.419Z,2.60
2023-03-22T14:20:14.439Z,2.60
